Time;durP1;ratioP1;P1;durP2;ratioP2;P2;SDS_P1;SDS_P2;PMS_P1;PMS_P2;Temp;Humidity;BMP_temperature;BMP_pressure;BME280_temperature;BME280_humidity;BME280_pressure;Samples;Min_cycle;Max_cycle;Signal;HPM_P1;HPM_P2
2022/01/03 00:01:39;;;;;;;1.58;1.38;;;;;;;;;;6190099;23;20125;-91
2022/01/03 00:04:06;;;;;;;4.13;1.50;;;;;;;;;;6189548;23;20433;-91
2022/01/03 00:06:34;;;;;;;10.52;2.45;;;;;;;;;;6214789;23;20070;-90
2022/01/03 00:09:01;;;;;;;7.60;3.30;;;;;;;;;;6189551;23;20411;-93
2022/01/03 00:11:27;;;;;;;9.50;2.28;;;;;;;;;;6188864;23;20043;-90
2022/01/03 00:13:53;;;;;;;4.07;2.20;;;;;;;;;;6190039;23;20497;-90
2022/01/03 00:16:19;;;;;;;7.72;2.45;;;;;;;;;;6190666;23;20413;-91
2022/01/03 00:18:45;;;;;;;8.75;2.30;;;;;;;;;;6214665;23;20016;-89
2022/01/03 00:21:12;;;;;;;8.23;2.35;;;;;;;;;;6241944;23;20024;-94
2022/01/03 00:23:40;;;;;;;8.10;2.05;;;;;;;;;;6241793;23;20064;-92
2022/01/03 00:26:07;;;;;;;14.90;2.20;;;;;;;;;;6241339;23;20084;-89
2022/01/03 00:28:34;;;;;;;9.65;2.60;;;;;;;;;;6214433;23;20020;-95
2022/01/03 00:31:00;;;;;;;9.73;1.83;;;;;;;;;;6214330;23;20024;-90
2022/01/03 00:33:27;;;;;;;5.43;2.30;;;;;;;;;;6189475;23;20380;-89
2022/01/03 00:36:04;;;;;;;10.73;2.38;;;;;;;;;;6189955;23;20430;-92
2022/01/03 00:38:31;;;;;;;10.65;2.33;;;;;;;;;;6189578;23;20012;-90
2022/01/03 00:40:59;;;;;;;9.57;2.75;;;;;;;;;;6192763;23;20027;-95
2022/01/03 00:43:25;;;;;;;11.70;2.63;;;;;;;;;;6217949;23;20083;-96
2022/01/03 00:45:55;;;;;;;16.02;3.05;;;;;;;;;;6191561;23;20028;-96
2022/01/03 00:48:22;;;;;;;14.82;2.42;;;;;;;;;;6192622;23;20027;-94
2022/01/03 00:50:48;;;;;;;9.73;2.38;;;;;;;;;;6215329;23;20431;-92
2022/01/03 00:53:15;;;;;;;11.95;3.13;;;;;;;;;;6215801;23;20035;-96
2022/01/03 00:56:00;;;;;;;10.35;3.17;;;;;;;;;;6190495;23;20084;-92
2022/01/03 00:58:30;;;;;;;16.85;3.15;;;;;;;;;;6216016;23;20091;-96
2022/01/03 01:00:57;;;;;;;12.40;2.80;;;;;;;;;;6190271;23;20023;-92
2022/01/03 01:03:28;;;;;;;11.25;2.95;;;;;;;;;;6243534;23;20111;-90
2022/01/03 01:05:54;;;;;;;20.67;3.08;;;;;;;;;;6191307;23;20020;-94
2022/01/03 01:08:21;;;;;;;11.95;3.45;;;;;;;;;;6216837;23;20055;-90
2022/01/03 01:10:50;;;;;;;11.98;2.83;;;;;;;;;;6216394;23;20027;-89
2022/01/03 01:13:16;;;;;;;23.40;5.20;;;;;;;;;;6218291;23;20020;-96
2022/01/03 01:15:43;;;;;;;15.95;2.97;;;;;;;;;;6191461;23;20052;-94
2022/01/03 01:18:09;;;;;;;16.65;4.20;;;;;;;;;;6217002;23;20398;-91
2022/01/03 01:20:36;;;;;;;9.57;2.78;;;;;;;;;;6215832;23;20035;-94
2022/01/03 01:23:03;;;;;;;15.25;4.25;;;;;;;;;;6190313;23;20016;-92
2022/01/03 01:28:04;;;;;;;18.23;3.53;;;;;;;;;;6216337;23;20016;-93
2022/01/03 01:30:30;;;;;;;14.35;2.90;;;;;;;;;;6189036;23;20062;-89
2022/01/03 01:33:06;;;;;;;18.45;4.53;;;;;;;;;;6214025;23;20078;-88
2022/01/03 01:35:53;;;;;;;16.42;4.00;;;;;;;;;;6189609;23;20402;-88
2022/01/03 01:38:20;;;;;;;17.73;3.60;;;;;;;;;;6189996;23;20314;-89
2022/01/03 01:40:48;;;;;;;15.23;3.22;;;;;;;;;;6189644;23;20031;-88
2022/01/03 01:43:14;;;;;;;19.98;3.85;;;;;;;;;;6188349;23;20549;-90
2022/01/03 01:45:42;;;;;;;18.98;6.97;;;;;;;;;;6213825;23;20020;-88
2022/01/03 01:48:11;;;;;;;19.65;3.08;;;;;;;;;;6189134;23;20138;-88
2022/01/03 01:50:39;;;;;;;12.77;3.45;;;;;;;;;;6189545;23;20048;-87
2022/01/03 01:53:06;;;;;;;13.25;2.75;;;;;;;;;;6189500;23;20048;-91
2022/01/03 01:55:32;;;;;;;14.93;3.58;;;;;;;;;;6196237;23;20016;-94
2022/01/03 01:58:18;;;;;;;14.70;3.25;;;9.10;99.90;;;;;;6198311;23;20048;-96
2022/01/03 02:00:45;;;;;;;18.38;3.88;;;;;;;;;;6245484;23;20024;-91
2022/01/03 02:03:20;;;;;;;12.68;2.97;;;;;;;;;;6195401;23;20046;-93
2022/01/03 02:06:13;;;;;;;11.90;3.55;;;;;;;;;;6195631;23;20016;-93
2022/01/03 02:08:44;;;;;;;21.00;5.70;;;;;;;;;;6169366;23;20124;-90
2022/01/03 02:11:25;;;;;;;17.42;3.63;;;;;;;;;;6214642;23;20040;-92
2022/01/03 02:13:52;;;;;;;19.83;4.50;;;;;;;;;;6189973;23;20016;-91
2022/01/03 02:16:18;;;;;;;21.65;3.58;;;;;;;;;;6191734;23;20020;-92
2022/01/03 02:18:44;;;;;;;21.27;4.25;;;;;;;;;;6191080;23;20013;-90
2022/01/03 02:21:10;;;;;;;26.45;5.07;;;;;;;;;;6215865;23;20027;-91
2022/01/03 02:23:36;;;;;;;14.25;3.72;;;;;;;;;;6216113;23;20078;-91
2022/01/03 02:26:02;;;;;;;15.48;3.60;;;;;;;;;;6190657;23;20012;-92
2022/01/03 02:28:28;;;;;;;20.90;5.40;;;;;;;;;;6216365;23;20015;-96
2022/01/03 02:30:54;;;;;;;19.42;4.35;;;;;;;;;;6216464;23;20084;-95
2022/01/03 02:33:20;;;;;;;20.08;3.75;;;;;;;;;;6190646;23;20074;-94
2022/01/03 02:35:47;;;;;;;19.65;4.82;;;;;;;;;;6215492;23;20031;-92
2022/01/03 02:38:13;;;;;;;10.88;4.07;;;;;;;;;;6243377;23;20067;-93
2022/01/03 02:40:40;;;;;;;10.80;3.13;;;;;;;;;;6242786;23;20090;-94
2022/01/03 02:43:06;;;;;;;15.98;4.13;;;;;;;;;;6215637;23;20049;-91
2022/01/03 02:45:32;;;;;;;22.63;4.60;;;;;;;;;;6191216;23;20020;-94
2022/01/03 02:47:59;;;;;;;15.82;4.15;;;;;;;;;;6190664;23;20018;-92
2022/01/03 02:50:27;;;;;;;16.23;4.00;;;;;;;;;;6244041;23;20090;-96
2022/01/03 02:52:54;;;;;;;14.32;4.47;;;;;;;;;;6242667;23;20476;-91
2022/01/03 02:55:20;;;;;;;22.35;4.15;;;;;;;;;;6190796;23;20012;-88
2022/01/03 02:57:47;;;;;;;19.65;4.75;;;;;;;;;;6244042;23;20521;-95
2022/01/03 03:00:18;;;;;;;22.98;5.35;;;;;;;;;;6216753;23;20020;-96
2022/01/03 03:02:44;;;;;;;14.10;4.07;;;;;;;;;;6192365;23;20105;-95
2022/01/03 03:05:11;;;;;;;18.85;5.20;;;;;;;;;;6192302;23;20378;-95
2022/01/03 03:07:37;;;;;;;14.80;3.80;;;;;;;;;;6216619;23;20153;-91
2022/01/03 03:10:11;;;;;;;14.70;3.70;;;;;;;;;;6190392;23;20093;-94
2022/01/03 03:12:37;;;;;;;20.10;4.60;;;;;;;;;;6190657;23;20027;-94
2022/01/03 03:15:04;;;;;;;28.50;5.00;;;;;;;;;;6215481;23;20104;-90
2022/01/03 03:17:30;;;;;;;22.63;5.15;;;;;;;;;;6190545;23;20078;-91
2022/01/03 03:20:00;;;;;;;17.58;4.43;;;;;;;;;;6215903;23;20031;-93
2022/01/03 03:22:27;;;;;;;22.27;5.70;;;;;;;;;;6242870;23;20406;-93
2022/01/03 03:25:14;;;;;;;23.00;5.35;;;;;;;;;;6214891;23;20310;-93
2022/01/03 03:27:44;;;;;;;16.98;3.97;;;;;;;;;;6190527;23;20383;-89
2022/01/03 03:30:15;;;;;;;24.33;3.70;;;;;;;;;;6216042;23;20163;-93
2022/01/03 03:32:42;;;;;;;21.83;5.43;;;;;;;;;;6215421;23;20115;-90
2022/01/03 03:35:09;;;;;;;28.40;6.28;;;;;;;;;;6190591;23;20062;-93
2022/01/03 03:37:35;;;;;;;19.42;3.92;;;;;;;;;;6216333;23;20051;-94
2022/01/03 03:40:01;;;;;;;25.63;4.30;;;;;;;;;;6242697;23;20101;-95
2022/01/03 03:42:27;;;;;;;17.88;3.88;;;;;;;;;;6214995;23;20477;-93
2022/01/03 03:44:53;;;;;;;20.63;5.00;;;;;;;;;;6215782;23;20027;-92
2022/01/03 03:47:19;;;;;;;18.15;4.68;;;;;;;;;;6192070;23;20020;-93
2022/01/03 03:49:45;;;;;;;24.83;4.88;;;;;;;;;;6215740;23;20016;-93
2022/01/03 03:52:11;;;;;;;31.75;5.45;;;;;;;;;;6190659;23;20051;-90
2022/01/03 03:54:37;;;;;;;17.85;4.35;;;;;;;;;;6189935;23;20080;-94
2022/01/03 03:57:04;;;;;;;9.32;2.70;;;;;;;;;;6190494;23;20023;-90
2022/01/03 03:59:30;;;;;;;26.45;5.28;;;;;;;;;;6214701;23;20020;-95
2022/01/03 04:01:57;;;;;;;26.15;5.28;;;;;;;;;;6214880;23;20282;-91
2022/01/03 04:04:24;;;;;;;33.38;5.72;;;;;;;;;;6190946;23;20098;-94
2022/01/03 04:06:50;;;;;;;22.85;4.78;;;;;;;;;;6190701;23;20016;-89
2022/01/03 04:09:16;;;;;;;21.02;6.18;;;;;;;;;;6191386;23;20085;-94
2022/01/03 04:11:42;;;;;;;15.55;4.13;;;;;;;;;;6190808;23;20024;-95
2022/01/03 04:14:08;;;;;;;21.60;4.22;;;;;;;;;;6191367;23;20084;-95
2022/01/03 04:16:34;;;;;;;22.48;5.50;;;;;;;;;;6190230;23;20080;-91
2022/01/03 04:19:01;;;;;;;27.35;4.70;;;;;;;;;;6190385;23;20031;-92
2022/01/03 04:21:27;;;;;;;24.17;5.25;;;;;;;;;;6217411;23;20038;-88
2022/01/03 04:23:53;;;;;;;25.13;5.95;;;;;;;;;;6193872;23;20012;-87
2022/01/03 04:26:20;;;;;;;20.90;6.78;;;;;;;;;;6191862;23;20106;-87
2022/01/03 04:28:46;;;;;;;21.33;4.22;;;;;;;;;;6218006;23;20110;-92
2022/01/03 04:31:12;;;;;;;22.33;4.97;;;;;;;;;;6191589;23;20151;-87
2022/01/03 04:33:38;;;;;;;24.45;5.88;;;;;;;;;;6242944;23;20095;-88
2022/01/03 04:36:05;;;;;;;18.60;3.92;;;;;;;;;;6242812;23;20012;-87
2022/01/03 04:38:32;;;;;;;9.07;3.83;;;;;;;;;;6190022;23;20020;-95
2022/01/03 04:41:01;;;;;;;27.08;5.35;;;;;;;;;;6215751;23;20057;-89
2022/01/03 04:43:28;;;;;;;18.23;4.13;;;;;;;;;;6242715;23;20463;-87
2022/01/03 04:45:56;;;;;;;22.90;5.03;;;;;;;;;;6215299;23;20051;-92
2022/01/03 04:48:22;;;;;;;23.85;5.22;;;;;;;;;;6215664;23;20330;-88
2022/01/03 04:50:48;;;;;;;22.27;6.18;;;;;;;;;;6242511;23;20173;-91
2022/01/03 04:53:15;;;;;;;18.95;4.88;;;;;;;;;;6190048;23;20464;-93
2022/01/03 04:55:41;;;;;;;27.00;5.68;;;;;;;;;;6190143;23;20079;-92
2022/01/03 04:58:08;;;;;;;23.73;5.68;;;;;;;;;;6214763;23;20110;-91
2022/01/03 05:00:34;;;;;;;24.30;4.35;;;;;;;;;;6189423;23;20091;-96
2022/01/03 05:03:00;;;;;;;21.42;5.65;;;;;;;;;;6190442;23;20020;-90
2022/01/03 05:05:26;;;;;;;23.17;4.72;;;;;;;;;;6215779;23;20016;-88
2022/01/03 05:07:52;;;;;;;22.25;4.88;;;;;;;;;;6216211;23;20107;-91
2022/01/03 05:10:19;;;;;;;24.13;6.88;;;;;;;;;;6192084;23;20044;-94
2022/01/03 05:12:45;;;;;;;21.50;3.58;;;;;;;;;;6221288;23;20016;-91
2022/01/03 05:15:14;;;;;;;25.02;5.88;;;;;;;;;;6197155;23;20017;-96
2022/01/03 05:17:40;;;;;;;20.73;4.55;;;;;;;;;;6195462;23;20016;-93
2022/01/03 05:20:06;;;;;;;15.45;4.82;;;;;;;;;;6195964;23;20016;-96
2022/01/03 05:22:32;;;;;;;8.07;3.13;;;;;;;;;;6195377;23;20019;-94
2022/01/03 05:24:58;;;;;;;30.38;5.20;;;;;;;;;;6197625;23;20020;-93
2022/01/03 05:27:25;;;;;;;26.08;5.03;;;;;;;;;;6218336;23;20099;-93
2022/01/03 05:29:51;;;;;;;21.05;4.80;;;;;;;;;;6247742;23;20024;-93
2022/01/03 05:32:17;;;;;;;22.95;6.03;;;;;;;;;;6247923;23;20056;-96
2022/01/03 05:34:43;;;;;;;19.00;5.75;;;;;;;;;;6246456;23;20012;-92
2022/01/03 05:37:09;;;;;;;23.17;5.90;;;;;;;;;;6217939;23;20473;-95
2022/01/03 05:39:36;;;;;;;32.58;6.03;;;;;;;;;;6246553;23;20016;-96
2022/01/03 05:42:02;;;;;;;24.75;5.40;;;;;;;;;;6247895;23;20346;-92
2022/01/03 05:44:28;;;;;;;39.35;6.38;;;;;;;;;;6196633;23;20031;-92
2022/01/03 05:46:54;;;;;;;14.85;5.00;;;;;;;;;;6196712;23;20020;-94
2022/01/03 05:49:20;;;;;;;30.15;6.60;;;;;;;;;;6223258;23;20071;-95
2022/01/03 05:51:47;;;;;;;25.20;4.55;;;;;;;;;;6198333;23;20020;-96
2022/01/03 05:54:13;;;;;;;22.23;4.72;;;;;;;;;;6198260;23;20013;-94
2022/01/03 05:56:39;;;;;;;19.00;5.03;;;;;;;;;;6198752;23;20020;-95
2022/01/03 05:59:07;;;;;;;24.92;6.07;;;;;;;;;;6197670;23;20023;-95
2022/01/03 06:01:34;;;;;;;32.38;6.05;;;8.80;99.90;;;;;;6198189;23;20102;-95
2022/01/03 06:04:11;;;;;;;22.60;4.55;;;;;;;;;;6199183;23;20450;-93
2022/01/03 06:06:54;;;;;;;14.27;3.92;;;;;;;;;;6199487;23;20098;-92
2022/01/03 06:09:22;;;;;;;29.23;5.32;;;8.80;99.90;;;;;;6197470;23;20012;-94
2022/01/03 06:11:48;;;;;;;27.40;5.93;;;;;;;;;;6197730;23;20055;-94
2022/01/03 06:14:17;;;;;;;24.17;4.78;;;;;;;;;;6198423;23;20509;-94
2022/01/03 06:16:44;;;;;;;19.13;5.30;;;;;;;;;;6198852;23;20027;-93
2022/01/03 06:19:11;;;;;;;19.35;5.70;;;;;;;;;;6251232;23;20016;-96
2022/01/03 06:21:40;;;;;;;19.92;5.18;;;;;;;;;;6251767;23;20012;-94
2022/01/03 06:24:14;;;;;;;33.67;7.70;;;;;;;;;;6199997;23;20028;-96
2022/01/03 06:26:41;;;;;;;;;;;8.70;99.90;;;;;;6208809;23;20016;-96
2022/01/03 06:29:08;;;;;;;23.10;4.82;;;;;;;;;;6213523;23;19915;-96
2022/01/03 06:31:34;;;;;;;25.83;4.15;;;;;;;;;;6214746;23;20074;-96
2022/01/03 06:34:00;;;;;;;31.70;5.78;;;;;;;;;;6206889;23;20023;-96
2022/01/03 06:36:26;;;;;;;24.60;5.65;;;;;;;;;;6230286;23;20020;-96
2022/01/03 06:38:52;;;;;;;19.25;4.93;;;;;;;;;;6228541;23;20062;-96
2022/01/03 06:41:18;;;;;;;32.95;5.82;;;;;;;;;;6231142;23;20027;-96
2022/01/03 06:43:44;;;;;;;29.80;6.78;;;;;;;;;;6204543;23;20012;-96
2022/01/03 06:46:11;;;;;;;38.08;7.18;;;;;;;;;;6259641;23;20035;-95
2022/01/03 06:48:37;;;;;;;24.63;5.18;;;;;;;;;;6259895;23;20012;-96
2022/01/03 06:51:03;;;;;;;29.50;5.65;;;;;;;;;;6205339;23;20023;-96
2022/01/03 06:53:29;;;;;;;15.70;5.00;;;;;;;;;;6199281;23;20017;-95
2022/01/03 06:55:55;;;;;;;25.63;5.93;;;;;;;;;;6224921;23;20055;-96
2022/01/03 06:58:21;;;;;;;34.28;6.55;;;;;;;;;;6224759;23;20024;-95
2022/01/03 07:00:47;;;;;;;24.88;4.63;;;;;;;;;;6197790;23;20012;-94
2022/01/03 07:03:13;;;;;;;25.92;5.28;;;;;;;;;;6198173;23;20024;-94
2022/01/03 07:05:39;;;;;;;39.15;7.85;;;;;;;;;;6224874;23;20016;-94
2022/01/03 07:08:05;;;;;;;18.27;6.53;;;;;;;;;;6226306;23;20020;-96
2022/01/03 07:10:31;;;;;;;27.73;5.35;;;;;;;;;;6223576;23;20020;-96
2022/01/03 07:12:59;;;;;;;31.73;5.78;;;;;;;;;;6197805;23;20051;-96
2022/01/03 07:20:55;;;;;;;23.48;4.85;;;8.50;99.90;;;;;;6222689;23;20016;-96
2022/01/03 07:23:23;;;;;;;18.80;4.65;;;8.50;99.90;;;;;;6221832;23;20020;-94
2022/01/03 07:25:50;;;;;;;25.85;6.75;;;;;;;;;;6197716;23;20457;-93
2022/01/03 07:28:16;;;;;;;31.70;5.95;;;;;;;;;;6197208;23;20449;-94
2022/01/03 07:30:42;;;;;;;28.98;4.72;;;;;;;;;;6222393;23;20475;-94
2022/01/03 07:33:09;;;;;;;24.33;5.60;;;;;;;;;;6222472;23;20012;-95
2022/01/03 07:35:35;;;;;;;18.88;4.80;;;;;;;;;;6197171;23;20023;-93
2022/01/03 07:38:02;;;;;;;28.08;5.63;;;;;;;;;;6197220;23;20402;-95
2022/01/03 07:40:29;;;;;;;37.13;5.78;;;;;;;;;;6197131;23;20017;-90
2022/01/03 07:42:55;;;;;;;40.45;7.68;;;;;;;;;;6248548;23;20020;-96
2022/01/03 07:45:21;;;;;;;16.73;5.00;;;;;;;;;;6224816;23;20020;-96
2022/01/03 07:47:47;;;;;;;23.33;5.68;;;;;;;;;;6201278;23;20095;-92
2022/01/03 07:50:13;;;;;;;29.83;5.28;;;;;;;;;;6227533;23;20016;-94
2022/01/03 07:52:39;;;;;;;19.42;4.35;;;;;;;;;;6226004;23;20020;-89
2022/01/03 07:55:06;;;;;;;18.65;5.47;;;;;;;;;;6197624;23;20066;-89
2022/01/03 07:57:33;;;;;;;28.02;6.25;;;8.60;99.90;;;;;;6197841;23;20072;-87
2022/01/03 07:59:59;;;;;;;20.10;4.47;;;;;;;;;;6201381;23;20091;-95
2022/01/03 08:02:25;;;;;;;30.73;6.30;;;;;;;;;;6202078;23;20023;-92
2022/01/03 08:04:51;;;;;;;24.98;4.97;;;;;;;;;;6224416;23;20078;-90
2022/01/03 08:07:17;;;;;;;22.92;4.22;;;;;;;;;;6225725;23;20043;-93
2022/01/03 08:09:43;;;;;;;37.92;8.25;;;;;;;;;;6198987;23;20020;-90
2022/01/03 08:12:10;;;;;;;18.17;4.80;;;;;;;;;;6202219;23;20016;-86
2022/01/03 08:18:03;;;;;;;39.15;5.05;;;;;;;;;;6090820;23;20079;-92
2022/01/03 08:20:29;;;;;;;17.65;3.92;;;;;;;;;;6073623;23;20540;-95
2022/01/03 08:22:55;;;;;;;22.63;7.03;;;;;;;;;;6050934;23;20459;-93
2022/01/03 08:25:21;;;;;;;17.73;5.32;;;;;;;;;;6074881;23;20019;-89
2022/01/03 08:28:03;;;;;;;19.08;5.05;;;;;;;;;;6078918;23;20022;-96
2022/01/03 08:30:50;;;;;;;35.35;4.82;;;;;;;;;;6054257;23;20475;-94
2022/01/03 08:33:24;;;;;;;17.10;5.18;;;;;;;;;;6074323;23;20105;-95
2022/01/03 08:35:50;;;;;;;21.05;6.65;;;;;;;;;;6049883;23;20060;-95
2022/01/03 08:38:17;;;;;;;24.88;5.18;;;;;;;;;;6073224;23;20019;-95
2022/01/03 08:40:45;;;;;;;29.92;5.80;;;;;;;;;;6048961;23;20025;-95
2022/01/03 08:43:12;;;;;;;24.38;5.82;;;;;;;;;;6049345;23;20022;-95
2022/01/03 08:45:38;;;;;;;19.15;4.88;;;;;;;;;;6097307;23;20014;-92
2022/01/03 08:48:04;;;;;;;24.55;5.80;;;;;;;;;;6048627;23;20050;-91
2022/01/03 08:50:30;;;;;;;26.75;4.93;;;;;;;;;;6048854;23;20054;-94
2022/01/03 08:52:56;;;;;;;13.63;4.13;;;;;;;;;;6073201;23;20036;-93
2022/01/03 08:55:22;;;;;;;19.80;5.57;;;;;;;;;;6158123;23;20509;-96
2022/01/03 08:57:51;;;;;;;23.88;4.55;;;;;;;;;;6221743;23;20046;-91
2022/01/03 09:00:18;;;;;;;24.80;4.95;;;;;;;;;;6196089;23;20059;-96
2022/01/03 09:02:44;;;;;;;26.58;5.95;;;;;;;;;;6196258;23;20012;-89
2022/01/03 09:05:10;;;;;;;29.27;5.47;;;;;;;;;;6196185;23;20020;-96
2022/01/03 09:07:36;;;;;;;29.05;5.55;;;;;;;;;;6221224;23;20042;-96
2022/01/03 09:10:04;;;;;;;28.67;6.30;;;;;;;;;;6196675;23;20342;-92
2022/01/03 09:12:30;;;;;;;37.95;6.40;;;;;;;;;;6197166;23;20070;-89
2022/01/03 09:14:58;;;;;;;23.17;6.28;;;;;;;;;;6196642;23;20471;-94
2022/01/03 09:17:24;;;;;;;25.20;5.47;;;;;;;;;;6195853;23;20078;-89
2022/01/03 09:19:51;;;;;;;17.63;3.67;;;;;;;;;;6221168;23;20048;-92
2022/01/03 09:22:23;;;;;;;26.90;5.53;;;;;;;;;;6205535;23;20051;-89
2022/01/03 09:30:13;;;;;;;21.25;5.95;;;9.10;99.90;;;;;;6232003;23;20430;-93
2022/01/03 09:32:39;;;;;;;24.95;4.38;;;;;;;;;;6227736;23;20020;-94
2022/01/03 09:35:06;;;;;;;17.15;4.57;;;;;;;;;;6201714;23;20078;-95
2022/01/03 09:37:35;;;;;;;24.80;4.88;;;;;;;;;;6202274;23;20080;-95
2022/01/03 09:40:02;;;;;;;32.20;5.80;;;;;;;;;;6227945;23;20024;-94
2022/01/03 09:42:29;;;;;;;19.45;5.03;;;;;;;;;;6203532;23;20091;-95
2022/01/03 09:44:56;;;;;;;26.58;5.80;;;;;;;;;;6205070;23;20016;-96
2022/01/03 09:47:22;;;;;;;19.13;5.32;;;;;;;;;;6203748;23;20095;-96
2022/01/03 09:49:50;;;;;;;24.30;5.50;;;9.10;99.90;;;;;;6206515;23;20020;-91
2022/01/03 09:52:17;;;;;;;22.85;4.82;;;;;;;;;;6205289;23;20099;-95
2022/01/03 09:54:44;;;;;;;14.15;3.40;;;;;;;;;;6228451;23;20028;-96
2022/01/03 09:57:11;;;;;;;29.67;5.25;;;;;;;;;;6228126;23;20020;-96
2022/01/03 09:59:37;;;;;;;21.48;5.95;;;;;;;;;;6201381;23;20013;-95
2022/01/03 10:02:05;;;;;;;14.10;5.03;;;;;;;;;;6204114;23;20047;-93
2022/01/03 10:04:32;;;;;;;28.40;6.18;;;;;;;;;;6230118;23;20044;-96
2022/01/03 10:06:58;;;;;;;26.13;4.57;;;;;;;;;;6228731;23;20016;-88
2022/01/03 10:09:24;;;;;;;16.13;4.82;;;;;;;;;;6199516;23;20023;-87
2022/01/03 10:11:51;;;;;;;22.88;5.57;;;;;;;;;;6199166;23;20099;-87
2022/01/03 10:14:17;;;;;;;19.27;5.28;;;;;;;;;;6225822;23;20020;-87
2022/01/03 10:16:44;;;;;;;25.20;5.68;;;;;;;;;;6228952;23;20023;-93
2022/01/03 10:19:10;;;;;;;25.58;5.45;;;;;;;;;;6230785;23;20409;-87
2022/01/03 10:21:50;;;;;;;28.98;5.47;;;;;;;;;;6203890;23;20385;-93
2022/01/03 10:24:18;;;;;;;14.65;4.80;;;;;;;;;;6230374;23;20094;-93
2022/01/03 10:26:54;;;;;;;14.35;4.20;;;;;;;;;;6202792;23;20023;-95
2022/01/03 10:29:24;;;;;;;21.15;4.72;;;;;;;;;;6225247;23;20315;-94
2022/01/03 10:31:52;;;;;;;23.27;5.40;;;;;;;;;;6200389;23;20027;-89
2022/01/03 10:34:19;;;;;;;22.05;7.07;;;;;;;;;;6197140;23;20060;-94
2022/01/03 10:36:47;;;;;;;20.00;5.97;;;;;;;;;;6223959;23;20484;-93
2022/01/03 10:39:21;;;;;;;19.30;3.97;;;;;;;;;;6198462;23;20016;-89
2022/01/03 10:41:48;;;;;;;;;;;9.60;99.90;;;;;;6198186;23;20016;-94
2022/01/03 10:44:33;;;;;;;24.38;5.60;;;9.60;99.90;;;;;;6197644;23;19958;-91
2022/01/03 10:46:59;;;;;;;;;;;9.50;99.90;;;;;;6198455;23;20027;-93
2022/01/03 10:49:25;;;;;;;20.35;4.30;;;;;;;;;;6196907;23;19916;-92
2022/01/03 10:51:51;;;;;;;12.68;3.83;;;;;;;;;;6198594;23;20036;-92
2022/01/03 10:54:19;;;;;;;24.63;8.18;;;;;;;;;;6249228;23;20023;-90
2022/01/03 10:56:48;;;;;;;31.83;6.38;;;;;;;;;;6248808;23;20091;-89
2022/01/03 10:59:23;;;;;;;22.27;5.57;;;;;;;;;;6222382;23;20505;-87
2022/01/03 11:02:01;;;;;;;29.45;4.68;;;;;;;;;;6217103;23;20027;-89
2022/01/03 11:04:51;;;;;;;34.45;6.20;;;;;;;;;;6192286;23;20020;-94
2022/01/03 11:13:04;;;;;;;20.33;4.35;;;9.80;99.90;;;;;;6217121;23;20020;-86
2022/01/03 11:15:30;;;;;;;24.20;5.57;;;;;;;;;;6191920;23;20017;-86
2022/01/03 11:18:24;;;;;;;23.23;5.88;;;9.80;99.90;;;;;;6191936;23;20067;-88
2022/01/03 11:21:16;;;;;;;20.98;4.22;;;9.80;99.90;;;;;;6191701;23;20012;-88
2022/01/03 11:23:47;;;;;;;24.42;7.45;;;;;;;;;;6192637;23;20020;-87
2022/01/03 11:26:18;;;;;;;28.02;5.65;;;10.00;99.90;;;;;;6192724;23;20016;-93
2022/01/03 11:28:45;;;;;;;10.43;3.67;;;;;;;;;;6216373;23;20059;-90
2022/01/03 11:31:12;;;;;;;20.50;4.25;;;;;;;;;;6216624;23;20016;-88
2022/01/03 11:33:39;;;;;;;26.08;6.22;;;;;;;;;;6191698;23;20025;-87
2022/01/03 11:36:05;;;;;;;18.25;4.53;;;;;;;;;;6191692;23;20031;-86
2022/01/03 11:38:32;;;;;;;30.83;5.22;;;;;;;;;;6192475;23;20086;-86
2022/01/03 11:41:00;;;;;;;20.88;5.68;;;;;;;;;;6193956;23;20021;-93
2022/01/03 11:43:28;;;;;;;22.90;4.68;;;10.00;99.90;;;;;;6192289;23;20012;-87
2022/01/03 11:45:54;;;;;;;22.15;4.30;;;;;;;;;;6218671;23;20013;-90
2022/01/03 11:48:20;;;;;;;27.50;4.75;;;;;;;;;;6193866;23;20013;-90
2022/01/03 11:50:50;;;;;;;21.67;4.85;;;;;;;;;;6191591;23;20027;-90
2022/01/03 11:53:20;;;;;;;22.08;5.20;;;;;;;;;;6192010;23;20450;-92
2022/01/03 11:55:51;;;;;;;27.42;5.88;;;10.10;99.90;;;;;;6216589;23;20472;-90
2022/01/03 11:58:44;;;;;;;19.17;3.72;;;10.10;99.90;;;;;;6242464;23;20347;-94
2022/01/03 12:03:58;;;;;;;21.98;4.88;;;;;;;;;;6072536;23;20397;-94
2022/01/03 12:06:32;;;;;;;11.90;3.45;;;;;;;;;;6049786;23;20014;-89
2022/01/03 12:09:00;;;;;;;13.25;4.80;;;;;;;;;;6050984;23;20054;-95
2022/01/03 12:11:28;;;;;;;12.60;3.83;;;;;;;;;;6075063;23;20018;-88
2022/01/03 12:14:08;;;;;;;17.48;4.43;;;;;;;;;;6097344;23;20057;-91
2022/01/03 12:16:44;;;;;;;17.83;5.18;;;;;;;;;;6073436;23;20037;-89
2022/01/03 12:19:30;;;;;;;27.00;5.55;;;;;;;;;;6049251;23;20018;-88
2022/01/03 12:22:01;;;;;;;29.73;4.25;;;;;;;;;;6072052;23;20014;-89
2022/01/03 12:24:27;;;;;;;15.25;3.90;;;;;;;;;;6072640;23;20073;-90
2022/01/03 12:27:11;;;;;;;19.83;5.07;;;;;;;;;;6073039;23;20018;-91
2022/01/03 12:29:57;;;;;;;;;;;10.10;99.90;;;;;;6049895;23;20352;-91
2022/01/03 12:32:27;;;;;;;18.90;5.25;;;;;;;;;;6072125;23;19917;-87
2022/01/03 12:35:18;;;;;;;15.35;4.95;;;10.10;99.90;;;;;;6048894;23;20153;-89
2022/01/03 12:37:49;;;;;;;14.02;3.78;;;10.10;99.90;;;;;;6072489;23;20015;-88
2022/01/03 12:40:15;;;;;;;25.10;3.83;;;;;;;;;;6093849;23;20027;-90
2022/01/03 12:42:51;;;;;;;18.85;4.05;;;;;;;;;;6190570;23;20025;-89
2022/01/03 12:45:18;;;;;;;20.00;5.13;;;;;;;;;;6215854;23;20543;-87
2022/01/03 12:47:44;;;;;;;19.30;5.00;;;;;;;;;;6215398;23;20350;-88
2022/01/03 12:50:30;;;;;;;18.38;3.83;;;;;;;;;;6192001;23;20095;-88
2022/01/03 12:52:58;;;;;;;27.88;4.63;;;;;;;;;;6215755;23;20020;-87
2022/01/03 12:55:41;;;;;;;32.38;5.68;;;;;;;;;;6218120;23;20074;-88
2022/01/03 12:58:16;;;;;;;21.45;4.53;;;;;;;;;;6215752;23;20024;-89
2022/01/03 13:00:51;;;;;;;20.23;3.95;;;;;;;;;;6190777;23;20017;-91
2022/01/03 13:03:29;;;;;;;19.67;4.72;;;;;;;;;;6191277;23;20031;-90
2022/01/03 13:06:13;;;;;;;21.58;5.43;;;;;;;;;;6191146;23;20024;-87
2022/01/03 13:08:48;;;;;;;29.20;5.78;;;;;;;;;;6215888;23;20450;-91
2022/01/03 13:11:18;;;;;;;24.98;4.57;;;;;;;;;;6215659;23;20103;-96
2022/01/03 13:13:46;;;;;;;20.40;5.57;;;;;;;;;;6190685;23;20013;-94
2022/01/03 13:16:18;;;;;;;17.52;4.95;;;;;;;;;;6190819;23;20473;-93
2022/01/03 13:18:47;;;;;;;17.27;3.75;;;;;;;;;;6190973;23;20450;-91
2022/01/03 13:21:14;;;;;;;18.05;5.68;;;;;;;;;;6191491;23;20020;-93
2022/01/03 13:23:50;;;;;;;21.45;5.72;;;;;;;;;;6191580;23;20032;-94
2022/01/03 13:26:16;;;;;;;32.40;7.10;;;;;;;;;;6192029;23;20021;-94
2022/01/03 13:28:45;;;;;;;20.30;5.13;;;;;;;;;;6216363;23;20025;-89
2022/01/03 13:31:11;;;;;;;22.58;5.15;;;;;;;;;;6215264;23;20032;-88
2022/01/03 13:33:37;;;;;;;30.55;5.38;;;;;;;;;;6190100;23;20019;-88
2022/01/03 13:36:04;;;;;;;18.40;4.68;;;;;;;;;;6191581;23;20027;-92
2022/01/03 13:38:31;;;;;;;19.90;4.65;;;;;;;;;;6217368;23;20457;-90
2022/01/03 13:41:17;;;;;;;18.38;3.58;;;10.30;99.90;;;;;;6216696;23;20028;-93
2022/01/03 13:43:49;;;;;;;14.15;3.97;;;;;;;;;;6217094;23;20016;-89
2022/01/03 13:49:21;;;;;;;17.42;4.05;;;;;;;;;;6215113;23;20025;-86
2022/01/03 13:51:52;;;;;;;28.92;5.75;;;;;;;;;;6190739;23;20020;-90
2022/01/03 13:54:25;;;;;;;26.08;5.50;;;;;;;;;;6215203;23;20020;-89
2022/01/03 13:56:51;;;;;;;15.50;4.78;;;;;;;;;;6189934;23;20024;-86
2022/01/03 13:59:17;;;;;;;26.77;5.55;;;;;;;;;;6190235;23;20013;-88
2022/01/03 14:01:44;;;;;;;18.85;4.00;;;;;;;;;;6189761;23;20020;-86
2022/01/03 14:04:10;;;;;;;24.98;5.40;;;;;;;;;;6190336;23;20019;-93
2022/01/03 14:06:36;;;;;;;26.75;5.13;;;;;;;;;;6191618;23;20020;-94
2022/01/03 14:09:16;;;;;;;16.35;4.43;;;10.00;99.90;;;;;;6191797;23;20454;-93
2022/01/03 14:11:42;;;;;;;21.65;4.75;;;;;;;;;;6218621;23;20020;-90
2022/01/03 14:14:09;;;;;;;20.67;4.25;;;;;;;;;;6192698;23;20012;-92
2022/01/03 14:16:50;;;;;;;22.40;5.07;;;;;;;;;;6217865;23;20468;-94
2022/01/03 14:19:16;;;;;;;17.02;4.93;;;;;;;;;;6193023;23;20469;-93
2022/01/03 14:21:43;;;;;;;16.63;4.82;;;;;;;;;;6217993;23;20020;-94
2022/01/03 14:24:10;;;;;;;25.90;4.70;;;;;;;;;;6218259;23;20019;-93
2022/01/03 14:26:36;;;;;;;17.52;4.70;;;;;;;;;;6219864;23;20013;-95
2022/01/03 14:29:08;;;;;;;28.48;4.57;;;;;;;;;;6193556;23;20016;-92
2022/01/03 14:31:40;;;;;;;26.92;6.00;;;;;;;;;;6219036;23;20077;-94
2022/01/03 14:34:06;;;;;;;17.25;5.28;;;;;;;;;;6220141;23;20017;-95
2022/01/03 14:36:37;;;;;;;31.17;4.75;;;;;;;;;;6193440;23;20025;-93
2022/01/03 14:39:03;;;;;;;19.45;5.32;;;;;;;;;;6220145;23;20016;-87
2022/01/03 14:41:29;;;;;;;31.35;6.25;;;;;;;;;;6219272;23;20092;-87
2022/01/03 14:43:57;;;;;;;28.50;6.13;;;;;;;;;;6192482;23;20066;-88
2022/01/03 14:46:29;;;;;;;21.50;5.82;;;;;;;;;;6218990;23;20344;-86
2022/01/03 14:48:55;;;;;;;31.52;6.85;;;;;;;;;;6218803;23;20023;-90
2022/01/03 14:51:21;;;;;;;32.13;5.70;;;;;;;;;;6192049;23;20017;-91
2022/01/03 14:53:47;;;;;;;24.55;5.50;;;;;;;;;;6192514;23;20012;-91
2022/01/03 14:56:26;;;;;;;25.23;5.28;;;;;;;;;;6192113;23;20020;-92
2022/01/03 14:59:08;;;;;;;22.92;5.55;;;;;;;;;;6192796;23;20016;-93
2022/01/03 15:01:34;;;;;;;21.83;5.45;;;;;;;;;;6219418;23;20016;-95